createdAt,value
2023-03-17T00:00:01.663Z,1312.00
2023-03-17T00:01:01.701Z,1309.00
2023-03-17T00:02:01.668Z,1313.00
2023-03-17T00:03:01.651Z,1304.00
2023-03-17T00:04:01.694Z,1303.00
2023-03-17T00:05:01.653Z,1302.00
2023-03-17T00:06:01.651Z,1307.00
2023-03-17T00:07:01.656Z,1307.00
2023-03-17T00:08:01.658Z,1312.00
2023-03-17T00:09:01.664Z,1311.00
2023-03-17T00:10:01.638Z,1309.00
2023-03-17T00:11:01.630Z,1304.00
2023-03-17T00:12:01.632Z,1310.00
2023-03-17T00:13:01.634Z,1306.00
2023-03-17T00:14:01.642Z,1309.00
2023-03-17T00:15:01.644Z,1308.00
2023-03-17T00:16:01.724Z,1309.00
2023-03-17T00:17:01.644Z,1308.00
2023-03-17T00:18:01.659Z,1307.00
2023-03-17T00:19:02.363Z,1306.00
2023-03-17T00:20:01.637Z,1306.00
2023-03-17T00:37:01.862Z,1290.00
2023-03-17T00:38:01.858Z,1294.00
2023-03-17T00:39:01.877Z,1293.00
2023-03-17T00:41:01.892Z,1296.00
2023-03-17T00:42:01.910Z,1292.00
2023-03-17T06:26:08.477Z,948.00
2023-03-17T06:35:07.983Z,910.00
2023-03-17T06:36:08.122Z,919.00
2023-03-17T06:37:07.985Z,938.00
2023-03-17T06:38:07.984Z,948.00
2023-03-17T06:39:07.991Z,956.00
2023-03-17T06:40:07.993Z,960.00
2023-03-17T06:41:08.000Z,964.00
2023-03-17T06:42:08.495Z,968.00
2023-03-17T06:43:08.087Z,967.00
2023-03-17T06:44:08.015Z,972.00
2023-03-17T06:45:08.871Z,972.00
2023-03-17T06:46:08.135Z,970.00
2023-03-17T06:47:08.027Z,971.00
2023-03-17T06:48:08.051Z,968.00
2023-03-17T06:49:08.098Z,965.00
2023-03-17T06:50:08.155Z,962.00
2023-03-17T06:51:08.217Z,963.00
2023-03-17T06:52:08.268Z,956.00
2023-03-17T06:53:08.328Z,957.00
2023-03-17T06:54:08.401Z,962.00
2023-03-17T06:55:08.425Z,960.00
2023-03-17T06:56:20.010Z,962.00
2023-03-17T06:57:09.474Z,962.00
2023-03-17T06:58:08.520Z,965.00
2023-03-17T06:59:08.534Z,963.00
2023-03-17T07:00:08.420Z,963.00
2023-03-17T07:01:08.432Z,960.00
2023-03-17T07:02:08.441Z,961.00
2023-03-17T07:03:08.404Z,965.00
2023-03-17T07:04:08.496Z,961.00
2023-03-17T07:05:08.404Z,959.00
2023-03-17T07:06:08.437Z,959.00
2023-03-17T07:07:08.508Z,959.00
2023-03-17T07:08:08.569Z,960.00
2023-03-17T07:09:08.654Z,958.00
2023-03-17T07:10:08.689Z,953.00
2023-03-17T07:11:08.718Z,957.00
2023-03-17T07:12:08.778Z,958.00
2023-03-17T07:13:08.821Z,957.00
2023-03-17T07:14:08.892Z,960.00
2023-03-17T07:15:08.918Z,963.00
2023-03-17T07:16:09.492Z,963.00
2023-03-17T07:17:08.999Z,968.00
2023-03-17T07:18:09.032Z,968.00
2023-03-17T07:19:09.102Z,968.00
2023-03-17T07:20:09.132Z,963.00
2023-03-17T07:21:09.180Z,965.00
2023-03-17T07:22:09.248Z,966.00
2023-03-17T07:23:09.270Z,963.00
2023-03-17T07:24:09.966Z,961.00
2023-03-17T07:25:09.582Z,1022.00
2023-03-17T07:26:09.445Z,1016.00
2023-03-17T07:27:09.545Z,1046.00
2023-03-17T07:28:09.523Z,1164.00
2023-03-17T07:29:09.544Z,1173.00
2023-03-17T07:30:09.599Z,1241.00
2023-03-17T07:31:09.644Z,1271.00
2023-03-17T07:32:09.564Z,1292.00
2023-03-17T07:33:09.790Z,1355.00
2023-03-17T07:34:09.720Z,1378.00
2023-03-17T07:35:09.722Z,1402.00
2023-03-17T07:36:09.747Z,1436.00
2023-03-17T07:37:09.674Z,1492.00
2023-03-17T07:38:09.672Z,1509.00
2023-03-17T07:39:11.841Z,1526.00
2023-03-17T07:40:09.692Z,1569.00
2023-03-17T07:41:09.757Z,1590.00
2023-03-17T07:42:09.846Z,1634.00
2023-03-17T07:43:09.805Z,1664.00
2023-03-17T07:44:09.865Z,1688.00
2023-03-17T07:45:09.888Z,1707.00
2023-03-17T07:46:10.041Z,1777.00
2023-03-17T07:47:10.011Z,1775.00
2023-03-17T07:48:09.983Z,1791.00
2023-03-17T07:49:10.083Z,1818.00
2023-03-17T07:50:10.113Z,1871.00
2023-03-17T07:51:10.061Z,1896.00
2023-03-17T07:52:10.182Z,1913.00
2023-03-17T07:53:10.132Z,1947.00
2023-03-17T07:54:10.136Z,1974.00
2023-03-17T07:55:10.984Z,1995.00
2023-03-17T07:56:10.178Z,2056.00
2023-03-17T07:57:10.192Z,2074.00
2023-03-17T07:58:10.198Z,2118.00
2023-03-17T07:59:10.218Z,2131.00
2023-03-17T08:00:10.336Z,2152.00
2023-03-17T08:01:10.231Z,2194.00
2023-03-17T08:02:10.255Z,2237.00
2023-03-17T08:03:11.175Z,2254.00
2023-03-17T08:04:10.317Z,2261.00
2023-03-17T08:05:10.554Z,2292.00
2023-03-17T08:06:10.970Z,2326.00
2023-03-17T08:07:10.246Z,2339.00
2023-03-17T08:08:10.233Z,2366.00
2023-03-17T08:09:10.965Z,2397.00
2023-03-17T08:10:10.235Z,2436.00
2023-03-17T08:11:10.255Z,2471.00
2023-03-17T08:12:10.217Z,2499.00
2023-03-17T08:13:10.265Z,2519.00
2023-03-17T08:14:10.198Z,2552.00
2023-03-17T08:15:10.186Z,2579.00
2023-03-17T08:16:10.252Z,2626.00
2023-03-17T08:17:10.172Z,2654.00
2023-03-17T08:18:10.203Z,2716.00
2023-03-17T08:19:10.162Z,2743.00
2023-03-17T08:20:10.154Z,2757.00
2023-03-17T08:21:10.152Z,2756.00
2023-03-17T08:22:10.126Z,2763.00
2023-03-17T08:23:10.116Z,2823.00
2023-03-17T08:24:11.953Z,2826.00
2023-03-17T08:25:10.120Z,2844.00
2023-03-17T08:26:10.075Z,2874.00
2023-03-17T08:27:10.086Z,2890.00
2023-03-17T08:28:10.147Z,2901.00
2023-03-17T08:29:10.076Z,2942.00
2023-03-17T08:30:10.128Z,2949.00
2023-03-17T08:31:12.295Z,2957.00
2023-03-17T08:32:10.122Z,2968.00
2023-03-17T08:33:10.173Z,2978.00
2023-03-17T08:34:10.090Z,2997.00
2023-03-17T08:35:10.133Z,3017.00
2023-03-17T08:36:10.090Z,3047.00
2023-03-17T08:37:11.456Z,3063.00
2023-03-17T08:38:10.069Z,3067.00
2023-03-17T08:39:10.058Z,3087.00
2023-03-17T08:40:10.074Z,3103.00
2023-03-17T08:41:10.076Z,3132.00
2023-03-17T08:42:10.066Z,3147.00
2023-03-17T08:43:10.049Z,3164.00
2023-03-17T08:44:10.047Z,3177.00
2023-03-17T08:45:10.987Z,3183.00
2023-03-17T08:46:10.104Z,3191.00
2023-03-17T08:47:10.035Z,3211.00
2023-03-17T08:48:10.089Z,3243.00
2023-03-17T08:49:10.130Z,3262.00
2023-03-17T08:50:10.052Z,3267.00
2023-03-17T08:51:10.005Z,3286.00
2023-03-17T08:52:10.002Z,3313.00
2023-03-17T08:53:10.023Z,3330.00
2023-03-17T08:54:10.003Z,3344.00
2023-03-17T08:55:10.010Z,3381.00
2023-03-17T08:56:10.007Z,3391.00
2023-03-17T08:57:10.004Z,3402.00
2023-03-17T08:58:10.056Z,3419.00
2023-03-17T08:59:09.982Z,3430.00
2023-03-17T09:00:09.980Z,3447.00
2023-03-17T09:01:10.030Z,3466.00
2023-03-17T09:02:10.044Z,3480.00
2023-03-17T09:03:09.976Z,3498.00
2023-03-17T09:04:09.974Z,3536.00
2023-03-17T09:05:09.978Z,3548.00
2023-03-17T09:06:09.981Z,3555.00
2023-03-17T09:07:09.968Z,3583.00
2023-03-17T09:08:10.999Z,3591.00
2023-03-17T09:09:10.950Z,3586.00
2023-03-17T09:10:09.916Z,3588.00
2023-03-17T09:11:09.859Z,3638.00
2023-03-17T09:12:09.826Z,3646.00
2023-03-17T09:46:08.720Z,3806.00
2023-03-17T09:48:08.506Z,3831.00
2023-03-17T09:49:08.461Z,3849.00
2023-03-17T09:50:08.404Z,3870.00
2023-03-17T09:51:08.348Z,3905.00
2023-03-17T09:52:08.299Z,3909.00
2023-03-17T09:53:08.240Z,3952.00
2023-03-17T09:54:08.208Z,3966.00
2023-03-17T09:55:08.234Z,3985.00
2023-03-17T09:56:08.235Z,4015.00
2023-03-17T09:57:08.256Z,4042.00
2023-03-17T09:58:08.265Z,4103.00
2023-03-17T09:59:08.272Z,4118.00
2023-03-17T10:00:08.312Z,4139.00
2023-03-17T10:01:08.308Z,4197.00
2023-03-17T10:03:08.330Z,4217.00
2023-03-17T10:04:08.445Z,4233.00
2023-03-17T10:05:08.409Z,4258.00
2023-03-17T10:06:08.366Z,4303.00
2023-03-17T10:07:08.381Z,4329.00
2023-03-17T10:08:22.674Z,4371.00
2023-03-17T10:10:08.275Z,4405.00
2023-03-17T10:11:08.230Z,4427.00
2023-03-17T10:12:08.177Z,4454.00
2023-03-17T10:13:08.128Z,4496.00
2023-03-17T10:14:08.077Z,4512.00
2023-03-17T10:15:08.024Z,4535.00
2023-03-17T10:16:08.131Z,4553.00
2023-03-17T10:17:07.989Z,4621.00
2023-03-17T10:18:08.007Z,4695.00
2023-03-17T10:19:08.016Z,4696.00
2023-03-17T10:20:08.036Z,4698.00
2023-03-17T10:21:08.030Z,4709.00
2023-03-17T10:22:08.002Z,4695.00
2023-03-17T10:23:08.011Z,4652.00
2023-03-17T10:24:08.065Z,4619.00
2023-03-17T10:25:08.001Z,4603.00
2023-03-17T10:26:07.952Z,4602.00
2023-03-17T10:43:08.569Z,4803.00
2023-03-17T11:13:08.055Z,5124.00
2023-03-17T11:24:08.537Z,5077.00
2023-03-17T11:30:08.048Z,5046.00
2023-03-17T12:32:05.990Z,4882.00
2023-03-17T12:33:06.007Z,4884.00
2023-03-17T12:34:05.932Z,4880.00
2023-03-17T12:35:05.895Z,4877.00
2023-03-17T12:36:05.970Z,4871.00
2023-03-17T12:37:05.842Z,4875.00
2023-03-17T12:38:05.809Z,4878.00
2023-03-17T12:39:05.786Z,4862.00
2023-03-17T12:40:05.764Z,4865.00
2023-03-17T12:41:05.723Z,4862.00
2023-03-17T12:42:05.700Z,4866.00
2023-03-17T12:43:05.663Z,4865.00
2023-03-17T12:44:05.638Z,4854.00
2023-03-17T12:45:05.702Z,4847.00
2023-03-17T12:46:05.624Z,4847.00
2023-03-17T12:47:05.579Z,4830.00
2023-03-17T12:48:05.538Z,4827.00
2023-03-17T12:49:05.484Z,4829.00
2023-03-17T12:50:05.459Z,4831.00
2023-03-17T12:51:05.457Z,4840.00
2023-03-17T12:52:05.404Z,4839.00
2023-03-17T12:53:05.379Z,4834.00
2023-03-17T12:54:05.371Z,4836.00
2023-03-17T12:55:05.344Z,4840.00
2023-03-17T12:56:05.296Z,4828.00
2023-03-17T12:57:05.398Z,4822.00
2023-03-17T12:58:05.264Z,4816.00
2023-03-17T12:59:05.291Z,4808.00
2023-03-17T13:00:05.207Z,4819.00
2023-03-17T13:01:05.182Z,4823.00
2023-03-17T13:02:05.276Z,4828.00
2023-03-17T13:03:05.163Z,4828.00
2023-03-17T13:04:05.095Z,4817.00
2023-03-17T13:05:05.057Z,4818.00
2023-03-17T13:06:05.036Z,4815.00
2023-03-17T13:07:05.000Z,4813.00
2023-03-17T13:08:04.979Z,4816.00
2023-03-17T13:09:04.948Z,4812.00
2023-03-17T13:10:04.919Z,4804.00
2023-03-17T13:11:04.948Z,4806.00
2023-03-17T13:12:04.878Z,4799.00
2023-03-17T13:13:04.852Z,4800.00
2023-03-17T13:14:04.822Z,4803.00
2023-03-17T13:15:04.780Z,4799.00
2023-03-17T13:16:04.793Z,4796.00
2023-03-17T13:17:04.719Z,4776.00
2023-03-17T13:18:04.688Z,4769.00
2023-03-17T13:19:04.670Z,4781.00
2023-03-17T13:20:04.644Z,4781.00
2023-03-17T13:21:05.070Z,4771.00
2023-03-17T13:22:04.581Z,4770.00
2023-03-17T13:23:04.553Z,4772.00
2023-03-17T13:24:04.539Z,4766.00
2023-03-17T13:25:04.500Z,4766.00
2023-03-17T13:26:04.495Z,4760.00
2023-03-17T13:27:05.071Z,4756.00
2023-03-17T13:28:04.433Z,4758.00
2023-03-17T13:29:04.454Z,4750.00
2023-03-17T13:30:04.371Z,4742.00
2023-03-17T13:31:04.407Z,4747.00
2023-03-17T13:32:04.333Z,4757.00
2023-03-17T13:33:04.396Z,4757.00
2023-03-17T13:34:04.259Z,4757.00
2023-03-17T13:35:04.241Z,4751.00
2023-03-17T13:36:04.239Z,4748.00
2023-03-17T13:37:04.194Z,4744.00
2023-03-17T13:38:04.155Z,4753.00
2023-03-17T13:39:18.438Z,4746.00
2023-03-17T13:40:05.074Z,4748.00
2023-03-17T13:41:04.049Z,4746.00
2023-03-17T13:42:15.562Z,4734.00
2023-03-17T13:43:04.954Z,4744.00
2023-03-17T13:44:03.927Z,4743.00
2023-03-17T13:45:03.880Z,4732.00
2023-03-17T13:46:03.841Z,4722.00
2023-03-17T13:47:03.822Z,4718.00
2023-03-17T13:48:03.767Z,4721.00
2023-03-17T13:49:03.738Z,4715.00
2023-03-17T13:50:03.708Z,4705.00
2023-03-17T13:51:03.678Z,4706.00
2023-03-17T13:52:03.638Z,4703.00
2023-03-17T13:53:03.604Z,4694.00
2023-03-17T13:54:03.642Z,4696.00
2023-03-17T13:55:03.522Z,4701.00
2023-03-17T13:56:03.553Z,4698.00
2023-03-17T13:57:03.454Z,4692.00
2023-03-17T13:58:03.441Z,4695.00
2023-03-17T13:59:03.401Z,4696.00
2023-03-17T14:00:03.588Z,4692.00
2023-03-17T14:01:03.372Z,4697.00
2023-03-17T14:02:03.289Z,4688.00
2023-03-17T14:03:03.253Z,4686.00
2023-03-17T14:04:03.336Z,4678.00
2023-03-17T14:05:03.189Z,4677.00
2023-03-17T14:58:01.648Z,4617.00
2023-03-17T14:59:01.645Z,4612.00
2023-03-17T15:00:01.624Z,4614.00
2023-03-17T15:01:01.630Z,4609.00
2023-03-17T15:02:01.633Z,4605.00
2023-03-17T15:03:01.598Z,4609.00
2023-03-17T15:04:01.588Z,4599.00
2023-03-17T15:05:01.593Z,4598.00
2023-03-17T15:06:01.570Z,4603.00
2023-03-17T15:07:01.570Z,4604.00
2023-03-17T15:08:01.547Z,4597.00
2023-03-17T15:09:01.537Z,4603.00
2023-03-17T15:10:01.516Z,4602.00
2023-03-17T15:11:01.500Z,4600.00
2023-03-17T15:12:01.512Z,4593.00
2023-03-17T15:13:01.507Z,4594.00
2023-03-17T15:14:01.497Z,4583.00
2023-03-17T15:15:01.487Z,4575.00
2023-03-17T15:16:01.497Z,4559.00
2023-03-17T15:17:01.540Z,4563.00
2023-03-17T15:18:01.545Z,4569.00
2023-03-17T15:19:01.492Z,4572.00
2023-03-17T15:20:01.484Z,4565.00
2023-03-17T15:21:01.510Z,4562.00
2023-03-17T15:22:01.491Z,4562.00
2023-03-17T15:23:01.498Z,4558.00
2023-03-17T15:24:01.509Z,4554.00
2023-03-17T15:25:01.506Z,4553.00
2023-03-17T15:26:01.509Z,4549.00
2023-03-17T15:27:01.506Z,4553.00
2023-03-17T15:28:01.528Z,4547.00
2023-03-17T15:29:01.618Z,4539.00
2023-03-17T15:30:01.526Z,4539.00
2023-03-17T15:31:01.545Z,4542.00
2023-03-17T15:32:01.539Z,4544.00
2023-03-17T15:33:01.593Z,4541.00
2023-03-17T15:34:01.557Z,4539.00
2023-03-17T15:35:01.566Z,4527.00
2023-03-17T15:36:01.623Z,4523.00
2023-03-17T15:37:01.587Z,4532.00
2023-03-17T15:38:01.596Z,4520.00
2023-03-17T15:39:01.714Z,4519.00
2023-03-17T15:40:01.658Z,4518.00
2023-03-17T15:41:01.631Z,4512.00
2023-03-17T15:42:01.669Z,4525.00
2023-03-17T15:43:01.687Z,4525.00
2023-03-17T15:44:03.477Z,4522.00
2023-03-17T15:45:01.707Z,4523.00
2023-03-17T15:46:01.813Z,4514.00
2023-03-17T15:47:01.733Z,4508.00
2023-03-17T15:48:01.749Z,4503.00
2023-03-17T15:49:01.781Z,4506.00
2023-03-17T15:50:01.800Z,4495.00
2023-03-17T15:51:01.809Z,4494.00
2023-03-17T15:52:01.822Z,4491.00
2023-03-17T15:53:01.846Z,4476.00
2023-03-17T15:54:02.134Z,4470.00
2023-03-17T15:55:01.883Z,4469.00
2023-03-17T15:56:02.130Z,4475.00
2023-03-17T15:57:01.926Z,4475.00
2023-03-17T15:58:01.960Z,4475.00
2023-03-17T15:59:01.967Z,4489.00
2023-03-17T16:00:02.037Z,4471.00
2023-03-17T16:01:02.105Z,4474.00
2023-03-17T16:02:02.119Z,4458.00
2023-03-17T16:03:02.084Z,4456.00
2023-03-17T16:04:02.162Z,4451.00
2023-03-17T16:05:02.148Z,4440.00
2023-03-17T16:06:02.170Z,4441.00
2023-03-17T16:07:02.221Z,4439.00
2023-03-17T16:08:02.233Z,4441.00
2023-03-17T16:09:02.280Z,4452.00
2023-03-17T16:10:02.338Z,4457.00
2023-03-17T16:11:02.318Z,4459.00
2023-03-17T16:12:02.352Z,4459.00
2023-03-17T16:13:02.409Z,4447.00
2023-03-17T16:14:02.431Z,4450.00
2023-03-17T16:15:10.309Z,4453.00
2023-03-17T16:16:03.468Z,4447.00
2023-03-17T16:17:02.416Z,4447.00
2023-03-17T16:18:02.397Z,4430.00
2023-03-17T16:19:02.370Z,4429.00
2023-03-17T16:20:02.337Z,4430.00
2023-03-17T16:21:02.308Z,4435.00
2023-03-17T16:22:02.280Z,4432.00
2023-03-17T16:23:02.259Z,4425.00
2023-03-17T16:24:02.249Z,4444.00
2023-03-17T16:25:02.287Z,4440.00
2023-03-17T16:26:14.245Z,4424.00
2023-03-17T16:27:03.313Z,4415.00
2023-03-17T16:28:02.257Z,4413.00
2023-03-17T16:29:02.231Z,4415.00
2023-03-17T16:30:02.344Z,4413.00
2023-03-17T16:31:02.208Z,4409.00
2023-03-17T16:32:02.150Z,4405.00
2023-03-17T16:33:02.181Z,4400.00
2023-03-17T16:34:02.091Z,4400.00
2023-03-17T16:35:02.099Z,4398.00
2023-03-17T16:36:02.205Z,4396.00
2023-03-17T16:37:02.638Z,4392.00
2023-03-17T16:38:02.126Z,4395.00
2023-03-17T16:39:03.133Z,4375.00
2023-03-17T16:40:02.260Z,4391.00
2023-03-17T16:41:02.219Z,4389.00
2023-03-17T16:42:02.238Z,4384.00
2023-03-17T16:43:02.253Z,4376.00
2023-03-17T16:44:02.297Z,4368.00
2023-03-17T16:45:02.336Z,4371.00
2023-03-17T16:46:02.337Z,4368.00
2023-03-17T16:47:02.369Z,4369.00
2023-03-17T16:48:02.333Z,4365.00
2023-03-17T16:49:02.374Z,4378.00
2023-03-17T16:50:02.552Z,4376.00
2023-03-17T16:51:02.467Z,4384.00
2023-03-17T16:52:02.497Z,4379.00
2023-03-17T16:53:02.525Z,4371.00
2023-03-17T16:54:02.597Z,4365.00
2023-03-17T16:55:02.585Z,4368.00
2023-03-17T16:56:02.647Z,4373.00
2023-03-17T16:57:02.675Z,4359.00
2023-03-17T16:58:02.693Z,4348.00
2023-03-17T16:59:02.724Z,4357.00
2023-03-17T17:00:02.719Z,4354.00
2023-03-17T17:01:02.770Z,4344.00
2023-03-17T17:02:02.898Z,4337.00
2023-03-17T17:03:02.876Z,4334.00
2023-03-17T17:04:02.851Z,4345.00
2023-03-17T17:05:02.907Z,4350.00
2023-03-17T17:06:02.894Z,4353.00
2023-03-17T17:07:03.035Z,4356.00
2023-03-17T17:08:02.915Z,4362.00
2023-03-17T17:09:02.931Z,4358.00
2023-03-17T17:10:02.981Z,4343.00
2023-03-17T17:11:02.991Z,4332.00
2023-03-17T17:12:03.647Z,4329.00
2023-03-17T17:13:03.079Z,4328.00
2023-03-17T17:14:03.072Z,4324.00
2023-03-17T17:15:03.037Z,4327.00
2023-03-17T17:16:03.043Z,4323.00
2023-03-17T17:17:03.009Z,4322.00
2023-03-17T17:18:03.011Z,4314.00
2023-03-17T17:19:03.086Z,4309.00
2023-03-17T17:20:03.172Z,4301.00
2023-03-17T17:21:03.232Z,4297.00
2023-03-17T17:22:03.306Z,4307.00
2023-03-17T17:23:03.379Z,4320.00
2023-03-17T17:24:03.452Z,4302.00
2023-03-17T17:25:03.537Z,4305.00
2023-03-17T17:26:03.610Z,4300.00
2023-03-17T17:27:03.537Z,4297.00
2023-03-17T17:28:03.516Z,4296.00
2023-03-17T17:29:03.518Z,4309.00
2023-03-17T17:30:03.511Z,4304.00
2023-03-17T17:31:03.626Z,4299.00
2023-03-17T17:32:03.663Z,4302.00
2023-03-17T17:33:03.769Z,4294.00
2023-03-17T17:34:03.838Z,4293.00
2023-03-17T17:35:03.918Z,4297.00
2023-03-17T17:36:04.078Z,4287.00
2023-03-17T17:37:04.068Z,4282.00
2023-03-17T19:04:04.292Z,4049.00
2023-03-17T19:05:04.290Z,4045.00
2023-03-17T19:06:04.260Z,4039.00
2023-03-17T22:58:05.866Z,3502.00
2023-03-17T23:03:05.949Z,3493.00
2023-03-17T23:04:05.977Z,3487.00
2023-03-17T23:05:05.991Z,3493.00
2023-03-17T23:13:06.110Z,3472.00
2023-03-17T23:22:06.421Z,3457.00
2023-03-17T23:23:06.401Z,3463.00
2023-03-17T23:24:06.383Z,3464.00
2023-03-17T23:25:06.433Z,3454.00
2023-03-17T23:26:06.502Z,3450.00
2023-03-17T23:27:06.512Z,3447.00
2023-03-17T23:28:06.481Z,3427.00
2023-03-17T23:29:06.459Z,3424.00
2023-03-17T23:39:06.385Z,3430.00
2023-03-17T23:40:06.466Z,3420.00
2023-03-17T23:41:06.365Z,3421.00
2023-03-17T23:42:06.345Z,3426.00
2023-03-17T23:43:06.345Z,3419.00
2023-03-17T23:44:06.310Z,3416.00
2023-03-17T23:45:06.298Z,3416.00
2023-03-17T23:47:06.436Z,3427.00
2023-03-17T23:48:06.758Z,3423.00
2023-03-17T23:49:06.762Z,3422.00
2023-03-17T23:50:06.567Z,3417.00
